sensor_id;sensor_type;location;lat;lon;timestamp;P1;durP1;ratioP1;P2;durP2;ratioP2
40515;SDS011;26216;53.724;9.898;2022-11-15T00:00:50;21.48;;;15.25;;
40515;SDS011;26216;53.724;9.898;2022-11-15T00:03:17;25.17;;;17.40;;
40515;SDS011;26216;53.724;9.898;2022-11-15T00:05:45;21.85;;;16.13;;
40515;SDS011;26216;53.724;9.898;2022-11-15T00:08:12;19.95;;;14.50;;
40515;SDS011;26216;53.724;9.898;2022-11-15T00:10:38;21.25;;;15.23;;
40515;SDS011;26216;53.724;9.898;2022-11-15T00:13:04;21.30;;;14.57;;
40515;SDS011;26216;53.724;9.898;2022-11-15T00:15:33;20.38;;;15.45;;
40515;SDS011;26216;53.724;9.898;2022-11-15T00:18:00;19.58;;;14.55;;
40515;SDS011;26216;53.724;9.898;2022-11-15T00:20:27;19.85;;;14.13;;
40515;SDS011;26216;53.724;9.898;2022-11-15T00:22:52;22.08;;;16.10;;
40515;SDS011;26216;53.724;9.898;2022-11-15T00:25:18;22.27;;;15.70;;
40515;SDS011;26216;53.724;9.898;2022-11-15T00:27:44;19.88;;;14.82;;
40515;SDS011;26216;53.724;9.898;2022-11-15T00:30:10;21.27;;;14.85;;
40515;SDS011;26216;53.724;9.898;2022-11-15T00:32:36;21.48;;;15.30;;
40515;SDS011;26216;53.724;9.898;2022-11-15T00:35:02;21.77;;;14.70;;
40515;SDS011;26216;53.724;9.898;2022-11-15T00:37:28;19.55;;;13.77;;
40515;SDS011;26216;53.724;9.898;2022-11-15T00:39:54;19.45;;;13.95;;
40515;SDS011;26216;53.724;9.898;2022-11-15T00:42:20;22.05;;;15.23;;
40515;SDS011;26216;53.724;9.898;2022-11-15T00:44:45;21.13;;;14.90;;
40515;SDS011;26216;53.724;9.898;2022-11-15T00:47:11;21.13;;;15.50;;
40515;SDS011;26216;53.724;9.898;2022-11-15T00:49:40;23.40;;;16.88;;
40515;SDS011;26216;53.724;9.898;2022-11-15T00:52:06;19.40;;;14.32;;
40515;SDS011;26216;53.724;9.898;2022-11-15T00:54:32;20.20;;;14.20;;
40515;SDS011;26216;53.724;9.898;2022-11-15T00:56:58;21.30;;;15.00;;
40515;SDS011;26216;53.724;9.898;2022-11-15T00:59:24;22.10;;;15.32;;
40515;SDS011;26216;53.724;9.898;2022-11-15T01:01:49;18.48;;;13.98;;
40515;SDS011;26216;53.724;9.898;2022-11-15T01:04:15;20.33;;;14.73;;
40515;SDS011;26216;53.724;9.898;2022-11-15T01:06:41;20.15;;;13.95;;
40515;SDS011;26216;53.724;9.898;2022-11-15T01:09:07;18.83;;;14.63;;
40515;SDS011;26216;53.724;9.898;2022-11-15T01:11:33;17.42;;;13.10;;
40515;SDS011;26216;53.724;9.898;2022-11-15T01:13:58;20.23;;;14.30;;
40515;SDS011;26216;53.724;9.898;2022-11-15T01:16:24;20.90;;;14.77;;
40515;SDS011;26216;53.724;9.898;2022-11-15T01:18:50;20.42;;;14.65;;
40515;SDS011;26216;53.724;9.898;2022-11-15T01:21:16;18.98;;;14.63;;
40515;SDS011;26216;53.724;9.898;2022-11-15T01:23:44;22.52;;;15.18;;
40515;SDS011;26216;53.724;9.898;2022-11-15T01:26:11;18.90;;;13.57;;
40515;SDS011;26216;53.724;9.898;2022-11-15T01:28:40;21.58;;;15.73;;
40515;SDS011;26216;53.724;9.898;2022-11-15T01:31:07;20.20;;;15.18;;
40515;SDS011;26216;53.724;9.898;2022-11-15T01:33:40;21.10;;;15.38;;
40515;SDS011;26216;53.724;9.898;2022-11-15T01:36:06;20.02;;;14.48;;
40515;SDS011;26216;53.724;9.898;2022-11-15T01:38:35;25.70;;;16.55;;
40515;SDS011;26216;53.724;9.898;2022-11-15T01:41:00;20.60;;;14.35;;
40515;SDS011;26216;53.724;9.898;2022-11-15T01:43:28;18.77;;;13.48;;
40515;SDS011;26216;53.724;9.898;2022-11-15T01:46:04;18.83;;;13.65;;
40515;SDS011;26216;53.724;9.898;2022-11-15T01:48:38;18.20;;;12.77;;
40515;SDS011;26216;53.724;9.898;2022-11-15T01:51:06;20.23;;;14.45;;
40515;SDS011;26216;53.724;9.898;2022-11-15T01:53:34;19.65;;;13.65;;
40515;SDS011;26216;53.724;9.898;2022-11-15T01:56:04;17.42;;;13.15;;
40515;SDS011;26216;53.724;9.898;2022-11-15T01:58:36;16.52;;;12.63;;
40515;SDS011;26216;53.724;9.898;2022-11-15T02:01:03;18.40;;;12.88;;
40515;SDS011;26216;53.724;9.898;2022-11-15T02:03:34;18.02;;;13.63;;
40515;SDS011;26216;53.724;9.898;2022-11-15T02:06:07;18.70;;;13.45;;
40515;SDS011;26216;53.724;9.898;2022-11-15T02:08:33;16.63;;;12.60;;
40515;SDS011;26216;53.724;9.898;2022-11-15T02:10:59;19.83;;;14.35;;
40515;SDS011;26216;53.724;9.898;2022-11-15T02:13:25;18.80;;;13.77;;
40515;SDS011;26216;53.724;9.898;2022-11-15T02:22:16;17.27;;;11.70;;
40515;SDS011;26216;53.724;9.898;2022-11-15T02:27:18;17.30;;;12.48;;
40515;SDS011;26216;53.724;9.898;2022-11-15T02:32:57;15.95;;;11.32;;
40515;SDS011;26216;53.724;9.898;2022-11-15T02:35:37;15.30;;;11.23;;
40515;SDS011;26216;53.724;9.898;2022-11-15T02:38:22;16.70;;;12.80;;
40515;SDS011;26216;53.724;9.898;2022-11-15T02:40:53;18.63;;;13.05;;
40515;SDS011;26216;53.724;9.898;2022-11-15T02:43:22;17.67;;;12.50;;
40515;SDS011;26216;53.724;9.898;2022-11-15T02:46:16;18.10;;;12.77;;
40515;SDS011;26216;53.724;9.898;2022-11-15T02:49:22;14.88;;;11.07;;
40515;SDS011;26216;53.724;9.898;2022-11-15T02:51:50;17.85;;;12.70;;
40515;SDS011;26216;53.724;9.898;2022-11-15T02:54:20;16.98;;;12.57;;
40515;SDS011;26216;53.724;9.898;2022-11-15T02:56:47;15.13;;;11.43;;
40515;SDS011;26216;53.724;9.898;2022-11-15T03:05:15;18.30;;;13.63;;
40515;SDS011;26216;53.724;9.898;2022-11-15T03:07:51;18.67;;;13.50;;
40515;SDS011;26216;53.724;9.898;2022-11-15T03:12:56;17.75;;;13.40;;
40515;SDS011;26216;53.724;9.898;2022-11-15T03:15:28;17.35;;;12.27;;
40515;SDS011;26216;53.724;9.898;2022-11-15T03:20:22;16.63;;;11.45;;
40515;SDS011;26216;53.724;9.898;2022-11-15T03:22:50;17.48;;;11.95;;
40515;SDS011;26216;53.724;9.898;2022-11-15T03:25:22;17.48;;;13.15;;
40515;SDS011;26216;53.724;9.898;2022-11-15T03:27:51;15.52;;;12.02;;
40515;SDS011;26216;53.724;9.898;2022-11-15T03:30:20;13.60;;;10.80;;
40515;SDS011;26216;53.724;9.898;2022-11-15T03:32:46;18.58;;;12.93;;
40515;SDS011;26216;53.724;9.898;2022-11-15T03:35:18;19.45;;;13.50;;
40515;SDS011;26216;53.724;9.898;2022-11-15T03:40:15;16.08;;;12.20;;
40515;SDS011;26216;53.724;9.898;2022-11-15T03:45:19;18.15;;;11.98;;
40515;SDS011;26216;53.724;9.898;2022-11-15T03:47:52;17.35;;;13.40;;
40515;SDS011;26216;53.724;9.898;2022-11-15T03:50:28;19.73;;;13.35;;
40515;SDS011;26216;53.724;9.898;2022-11-15T03:52:54;16.92;;;12.45;;
40515;SDS011;26216;53.724;9.898;2022-11-15T03:55:21;15.95;;;11.90;;
40515;SDS011;26216;53.724;9.898;2022-11-15T03:57:48;16.23;;;11.77;;
40515;SDS011;26216;53.724;9.898;2022-11-15T04:00:17;16.52;;;11.98;;
40515;SDS011;26216;53.724;9.898;2022-11-15T04:02:43;19.13;;;13.07;;
40515;SDS011;26216;53.724;9.898;2022-11-15T04:05:09;17.02;;;12.82;;
40515;SDS011;26216;53.724;9.898;2022-11-15T04:07:35;16.08;;;11.63;;
40515;SDS011;26216;53.724;9.898;2022-11-15T04:10:01;17.40;;;12.55;;
40515;SDS011;26216;53.724;9.898;2022-11-15T04:12:27;15.80;;;12.30;;
40515;SDS011;26216;53.724;9.898;2022-11-15T04:15:15;16.20;;;11.45;;
40515;SDS011;26216;53.724;9.898;2022-11-15T04:17:50;12.73;;;9.85;;
40515;SDS011;26216;53.724;9.898;2022-11-15T04:20:22;14.07;;;9.45;;
40515;SDS011;26216;53.724;9.898;2022-11-15T04:23:18;12.80;;;9.38;;
40515;SDS011;26216;53.724;9.898;2022-11-15T04:26:05;11.82;;;8.48;;
40515;SDS011;26216;53.724;9.898;2022-11-15T04:28:41;12.90;;;9.60;;
40515;SDS011;26216;53.724;9.898;2022-11-15T04:31:26;12.32;;;8.88;;
40515;SDS011;26216;53.724;9.898;2022-11-15T04:33:52;12.50;;;9.38;;
40515;SDS011;26216;53.724;9.898;2022-11-15T04:36:18;12.07;;;9.48;;
40515;SDS011;26216;53.724;9.898;2022-11-15T04:39:03;11.15;;;8.45;;
40515;SDS011;26216;53.724;9.898;2022-11-15T04:41:29;11.07;;;8.35;;
40515;SDS011;26216;53.724;9.898;2022-11-15T04:43:55;11.63;;;8.15;;
40515;SDS011;26216;53.724;9.898;2022-11-15T04:46:21;10.80;;;8.02;;
40515;SDS011;26216;53.724;9.898;2022-11-15T04:48:48;10.95;;;7.80;;
40515;SDS011;26216;53.724;9.898;2022-11-15T04:51:15;11.43;;;8.40;;
40515;SDS011;26216;53.724;9.898;2022-11-15T04:53:40;12.40;;;8.50;;
40515;SDS011;26216;53.724;9.898;2022-11-15T04:56:06;10.20;;;7.70;;
40515;SDS011;26216;53.724;9.898;2022-11-15T04:58:32;11.55;;;8.18;;
40515;SDS011;26216;53.724;9.898;2022-11-15T05:01:06;11.48;;;8.65;;
40515;SDS011;26216;53.724;9.898;2022-11-15T05:03:35;11.55;;;8.70;;
40515;SDS011;26216;53.724;9.898;2022-11-15T05:06:20;10.45;;;7.60;;
40515;SDS011;26216;53.724;9.898;2022-11-15T05:08:46;13.00;;;9.80;;
40515;SDS011;26216;53.724;9.898;2022-11-15T05:11:12;12.23;;;9.35;;
40515;SDS011;26216;53.724;9.898;2022-11-15T05:13:38;12.48;;;9.10;;
40515;SDS011;26216;53.724;9.898;2022-11-15T05:16:03;12.50;;;9.10;;
40515;SDS011;26216;53.724;9.898;2022-11-15T05:18:29;11.85;;;8.82;;
40515;SDS011;26216;53.724;9.898;2022-11-15T05:20:55;12.10;;;9.02;;
40515;SDS011;26216;53.724;9.898;2022-11-15T05:23:21;13.57;;;9.75;;
40515;SDS011;26216;53.724;9.898;2022-11-15T05:25:47;13.18;;;9.20;;
40515;SDS011;26216;53.724;9.898;2022-11-15T05:28:13;13.93;;;9.82;;
40515;SDS011;26216;53.724;9.898;2022-11-15T05:30:38;14.05;;;10.55;;
40515;SDS011;26216;53.724;9.898;2022-11-15T05:33:04;13.07;;;10.60;;
40515;SDS011;26216;53.724;9.898;2022-11-15T05:35:50;12.93;;;9.95;;
40515;SDS011;26216;53.724;9.898;2022-11-15T05:38:21;14.85;;;11.40;;
40515;SDS011;26216;53.724;9.898;2022-11-15T05:40:48;13.93;;;10.52;;
40515;SDS011;26216;53.724;9.898;2022-11-15T05:43:14;15.63;;;11.35;;
40515;SDS011;26216;53.724;9.898;2022-11-15T05:45:40;13.70;;;9.35;;
40515;SDS011;26216;53.724;9.898;2022-11-15T05:48:06;12.57;;;9.70;;
40515;SDS011;26216;53.724;9.898;2022-11-15T05:50:36;12.18;;;9.02;;
40515;SDS011;26216;53.724;9.898;2022-11-15T05:53:03;12.75;;;9.75;;
40515;SDS011;26216;53.724;9.898;2022-11-15T05:55:30;14.02;;;10.27;;
40515;SDS011;26216;53.724;9.898;2022-11-15T05:57:57;13.15;;;9.55;;
40515;SDS011;26216;53.724;9.898;2022-11-15T06:00:23;15.15;;;9.80;;
40515;SDS011;26216;53.724;9.898;2022-11-15T06:02:49;12.70;;;9.98;;
40515;SDS011;26216;53.724;9.898;2022-11-15T06:05:14;13.93;;;10.30;;
40515;SDS011;26216;53.724;9.898;2022-11-15T06:07:40;13.70;;;9.90;;
40515;SDS011;26216;53.724;9.898;2022-11-15T06:10:06;13.38;;;9.75;;
40515;SDS011;26216;53.724;9.898;2022-11-15T06:12:33;12.48;;;9.07;;
40515;SDS011;26216;53.724;9.898;2022-11-15T06:14:58;14.27;;;10.30;;
40515;SDS011;26216;53.724;9.898;2022-11-15T06:17:24;12.82;;;9.57;;
40515;SDS011;26216;53.724;9.898;2022-11-15T06:19:50;12.38;;;9.63;;
40515;SDS011;26216;53.724;9.898;2022-11-15T06:22:16;12.15;;;9.48;;
40515;SDS011;26216;53.724;9.898;2022-11-15T06:24:41;13.73;;;10.18;;
40515;SDS011;26216;53.724;9.898;2022-11-15T06:27:10;11.70;;;9.05;;
40515;SDS011;26216;53.724;9.898;2022-11-15T06:29:36;13.55;;;9.55;;
40515;SDS011;26216;53.724;9.898;2022-11-15T06:32:02;12.68;;;9.38;;
40515;SDS011;26216;53.724;9.898;2022-11-15T06:34:28;14.13;;;10.80;;
40515;SDS011;26216;53.724;9.898;2022-11-15T06:36:54;13.07;;;9.35;;
40515;SDS011;26216;53.724;9.898;2022-11-15T06:39:20;10.13;;;8.18;;
40515;SDS011;26216;53.724;9.898;2022-11-15T06:41:46;12.38;;;9.80;;
40515;SDS011;26216;53.724;9.898;2022-11-15T06:44:11;11.70;;;8.98;;
40515;SDS011;26216;53.724;9.898;2022-11-15T06:46:37;12.50;;;9.35;;
40515;SDS011;26216;53.724;9.898;2022-11-15T06:49:03;12.98;;;9.70;;
40515;SDS011;26216;53.724;9.898;2022-11-15T06:51:29;11.30;;;8.95;;
40515;SDS011;26216;53.724;9.898;2022-11-15T06:53:55;11.43;;;8.73;;
40515;SDS011;26216;53.724;9.898;2022-11-15T06:56:21;10.80;;;8.98;;
40515;SDS011;26216;53.724;9.898;2022-11-15T06:58:47;14.05;;;9.82;;
40515;SDS011;26216;53.724;9.898;2022-11-15T07:01:13;13.73;;;9.40;;
40515;SDS011;26216;53.724;9.898;2022-11-15T07:03:39;12.82;;;9.82;;
40515;SDS011;26216;53.724;9.898;2022-11-15T07:06:06;11.60;;;9.00;;
40515;SDS011;26216;53.724;9.898;2022-11-15T07:08:33;12.43;;;9.32;;
40515;SDS011;26216;53.724;9.898;2022-11-15T07:11:00;10.70;;;8.13;;
40515;SDS011;26216;53.724;9.898;2022-11-15T07:13:28;12.45;;;9.60;;
40515;SDS011;26216;53.724;9.898;2022-11-15T07:15:58;12.68;;;9.60;;
40515;SDS011;26216;53.724;9.898;2022-11-15T07:18:27;11.45;;;9.30;;
40515;SDS011;26216;53.724;9.898;2022-11-15T07:20:53;11.60;;;8.52;;
40515;SDS011;26216;53.724;9.898;2022-11-15T07:23:19;13.00;;;9.93;;
40515;SDS011;26216;53.724;9.898;2022-11-15T07:25:45;11.52;;;9.18;;
40515;SDS011;26216;53.724;9.898;2022-11-15T07:28:11;11.35;;;9.00;;
40515;SDS011;26216;53.724;9.898;2022-11-15T07:30:37;13.57;;;10.43;;
40515;SDS011;26216;53.724;9.898;2022-11-15T07:33:03;11.77;;;9.18;;
40515;SDS011;26216;53.724;9.898;2022-11-15T07:35:29;12.57;;;10.05;;
40515;SDS011;26216;53.724;9.898;2022-11-15T07:38:02;12.13;;;10.00;;
40515;SDS011;26216;53.724;9.898;2022-11-15T07:40:29;12.38;;;9.27;;
40515;SDS011;26216;53.724;9.898;2022-11-15T07:43:03;11.80;;;9.45;;
40515;SDS011;26216;53.724;9.898;2022-11-15T07:45:30;11.15;;;8.73;;
40515;SDS011;26216;53.724;9.898;2022-11-15T07:47:58;12.75;;;9.75;;
40515;SDS011;26216;53.724;9.898;2022-11-15T07:50:25;14.38;;;10.85;;
40515;SDS011;26216;53.724;9.898;2022-11-15T07:52:56;12.35;;;9.60;;
40515;SDS011;26216;53.724;9.898;2022-11-15T07:55:24;12.02;;;9.30;;
40515;SDS011;26216;53.724;9.898;2022-11-15T07:57:53;11.73;;;9.73;;
40515;SDS011;26216;53.724;9.898;2022-11-15T08:02:50;13.05;;;10.20;;
40515;SDS011;26216;53.724;9.898;2022-11-15T08:05:16;12.93;;;9.55;;
40515;SDS011;26216;53.724;9.898;2022-11-15T08:07:42;14.88;;;11.10;;
40515;SDS011;26216;53.724;9.898;2022-11-15T08:10:08;13.40;;;11.07;;
40515;SDS011;26216;53.724;9.898;2022-11-15T08:12:36;12.50;;;9.88;;
40515;SDS011;26216;53.724;9.898;2022-11-15T08:15:02;13.30;;;10.45;;
40515;SDS011;26216;53.724;9.898;2022-11-15T08:17:28;13.18;;;10.20;;
40515;SDS011;26216;53.724;9.898;2022-11-15T08:19:58;12.77;;;9.90;;
40515;SDS011;26216;53.724;9.898;2022-11-15T08:22:23;11.68;;;9.65;;
40515;SDS011;26216;53.724;9.898;2022-11-15T08:24:49;11.82;;;9.25;;
40515;SDS011;26216;53.724;9.898;2022-11-15T08:27:15;10.60;;;8.82;;
40515;SDS011;26216;53.724;9.898;2022-11-15T08:29:42;11.05;;;9.25;;
40515;SDS011;26216;53.724;9.898;2022-11-15T08:32:09;11.27;;;9.27;;
40515;SDS011;26216;53.724;9.898;2022-11-15T08:34:36;11.20;;;9.35;;
40515;SDS011;26216;53.724;9.898;2022-11-15T08:37:03;13.57;;;9.63;;
40515;SDS011;26216;53.724;9.898;2022-11-15T08:39:32;13.13;;;9.30;;
40515;SDS011;26216;53.724;9.898;2022-11-15T08:41:58;13.52;;;9.68;;
40515;SDS011;26216;53.724;9.898;2022-11-15T08:44:24;12.13;;;9.55;;
40515;SDS011;26216;53.724;9.898;2022-11-15T08:46:50;11.88;;;9.85;;
40515;SDS011;26216;53.724;9.898;2022-11-15T08:49:16;12.48;;;9.40;;
40515;SDS011;26216;53.724;9.898;2022-11-15T08:51:42;11.45;;;9.60;;
40515;SDS011;26216;53.724;9.898;2022-11-15T08:54:08;10.73;;;8.65;;
40515;SDS011;26216;53.724;9.898;2022-11-15T08:56:33;10.95;;;8.77;;
40515;SDS011;26216;53.724;9.898;2022-11-15T08:58:59;11.98;;;9.15;;
40515;SDS011;26216;53.724;9.898;2022-11-15T09:01:25;11.45;;;9.13;;
40515;SDS011;26216;53.724;9.898;2022-11-15T09:03:51;12.65;;;9.18;;
40515;SDS011;26216;53.724;9.898;2022-11-15T09:06:17;10.63;;;8.23;;
40515;SDS011;26216;53.724;9.898;2022-11-15T09:08:44;9.98;;;7.97;;
40515;SDS011;26216;53.724;9.898;2022-11-15T09:11:10;11.45;;;9.00;;
40515;SDS011;26216;53.724;9.898;2022-11-15T09:13:36;10.23;;;7.88;;
40515;SDS011;26216;53.724;9.898;2022-11-15T09:16:02;10.85;;;9.02;;
40515;SDS011;26216;53.724;9.898;2022-11-15T09:18:29;11.02;;;8.48;;
40515;SDS011;26216;53.724;9.898;2022-11-15T09:20:57;12.15;;;8.60;;
40515;SDS011;26216;53.724;9.898;2022-11-15T09:23:24;12.00;;;9.00;;
40515;SDS011;26216;53.724;9.898;2022-11-15T09:25:51;10.90;;;8.38;;
40515;SDS011;26216;53.724;9.898;2022-11-15T09:28:17;12.30;;;8.52;;
40515;SDS011;26216;53.724;9.898;2022-11-15T09:30:43;10.48;;;8.50;;
40515;SDS011;26216;53.724;9.898;2022-11-15T09:33:10;10.90;;;8.55;;
40515;SDS011;26216;53.724;9.898;2022-11-15T09:35:37;11.23;;;9.32;;
40515;SDS011;26216;53.724;9.898;2022-11-15T09:38:03;10.15;;;8.20;;
40515;SDS011;26216;53.724;9.898;2022-11-15T09:40:30;10.40;;;8.32;;
40515;SDS011;26216;53.724;9.898;2022-11-15T09:43:05;9.70;;;7.80;;
40515;SDS011;26216;53.724;9.898;2022-11-15T09:48:48;10.73;;;8.43;;
40515;SDS011;26216;53.724;9.898;2022-11-15T09:51:29;10.63;;;8.45;;
40515;SDS011;26216;53.724;9.898;2022-11-15T09:56:37;10.70;;;8.52;;
40515;SDS011;26216;53.724;9.898;2022-11-15T10:04:29;11.98;;;9.40;;
40515;SDS011;26216;53.724;9.898;2022-11-15T10:12:16;10.35;;;8.48;;
40515;SDS011;26216;53.724;9.898;2022-11-15T10:14:43;9.35;;;7.32;;
40515;SDS011;26216;53.724;9.898;2022-11-15T10:17:54;10.75;;;7.78;;
40515;SDS011;26216;53.724;9.898;2022-11-15T10:20:22;9.48;;;8.40;;
40515;SDS011;26216;53.724;9.898;2022-11-15T10:23:01;9.30;;;6.97;;
40515;SDS011;26216;53.724;9.898;2022-11-15T10:25:34;10.63;;;7.82;;
40515;SDS011;26216;53.724;9.898;2022-11-15T10:30:40;10.75;;;8.85;;
40515;SDS011;26216;53.724;9.898;2022-11-15T10:33:10;8.82;;;7.05;;
40515;SDS011;26216;53.724;9.898;2022-11-15T10:35:46;12.35;;;8.68;;
40515;SDS011;26216;53.724;9.898;2022-11-15T10:38:12;9.68;;;8.25;;
40515;SDS011;26216;53.724;9.898;2022-11-15T10:40:39;10.25;;;7.97;;
40515;SDS011;26216;53.724;9.898;2022-11-15T10:45:35;10.43;;;8.30;;
40515;SDS011;26216;53.724;9.898;2022-11-15T10:48:21;9.50;;;7.70;;
40515;SDS011;26216;53.724;9.898;2022-11-15T10:50:51;9.75;;;7.90;;
40515;SDS011;26216;53.724;9.898;2022-11-15T10:55:59;10.88;;;8.52;;
40515;SDS011;26216;53.724;9.898;2022-11-15T10:58:36;9.23;;;7.25;;
40515;SDS011;26216;53.724;9.898;2022-11-15T11:04:06;9.55;;;7.78;;
40515;SDS011;26216;53.724;9.898;2022-11-15T11:06:54;9.63;;;8.13;;
40515;SDS011;26216;53.724;9.898;2022-11-15T11:09:23;9.88;;;7.30;;
40515;SDS011;26216;53.724;9.898;2022-11-15T11:11:57;10.57;;;8.10;;
40515;SDS011;26216;53.724;9.898;2022-11-15T11:14:33;10.32;;;7.68;;
40515;SDS011;26216;53.724;9.898;2022-11-15T11:24:44;7.88;;;6.63;;
40515;SDS011;26216;53.724;9.898;2022-11-15T11:30:10;8.20;;;6.47;;
40515;SDS011;26216;53.724;9.898;2022-11-15T11:45:00;8.93;;;7.07;;
40515;SDS011;26216;53.724;9.898;2022-11-15T11:49:59;8.65;;;6.93;;
40515;SDS011;26216;53.724;9.898;2022-11-15T11:52:40;8.13;;;6.70;;
40515;SDS011;26216;53.724;9.898;2022-11-15T11:58:04;8.23;;;6.25;;
40515;SDS011;26216;53.724;9.898;2022-11-15T12:03:24;9.05;;;6.75;;
40515;SDS011;26216;53.724;9.898;2022-11-15T12:06:00;7.90;;;6.25;;
40515;SDS011;26216;53.724;9.898;2022-11-15T12:08:47;7.95;;;6.05;;
40515;SDS011;26216;53.724;9.898;2022-11-15T12:14:01;8.40;;;6.18;;
40515;SDS011;26216;53.724;9.898;2022-11-15T12:16:33;7.22;;;5.80;;
40515;SDS011;26216;53.724;9.898;2022-11-15T12:19:00;11.20;;;6.75;;
40515;SDS011;26216;53.724;9.898;2022-11-15T12:24:20;9.15;;;6.20;;
40515;SDS011;26216;53.724;9.898;2022-11-15T12:27:18;9.00;;;6.50;;
40515;SDS011;26216;53.724;9.898;2022-11-15T12:30:14;8.73;;;5.45;;
40515;SDS011;26216;53.724;9.898;2022-11-15T12:32:53;8.05;;;6.30;;
40515;SDS011;26216;53.724;9.898;2022-11-15T12:35:37;8.52;;;6.72;;
40515;SDS011;26216;53.724;9.898;2022-11-15T12:38:09;9.25;;;5.47;;
40515;SDS011;26216;53.724;9.898;2022-11-15T12:41:15;8.13;;;6.05;;
40515;SDS011;26216;53.724;9.898;2022-11-15T12:43:43;6.82;;;5.50;;
40515;SDS011;26216;53.724;9.898;2022-11-15T12:48:58;10.30;;;6.88;;
40515;SDS011;26216;53.724;9.898;2022-11-15T13:02:20;7.72;;;5.70;;
40515;SDS011;26216;53.724;9.898;2022-11-15T13:04:50;7.03;;;5.43;;
40515;SDS011;26216;53.724;9.898;2022-11-15T13:18:30;7.05;;;5.65;;
40515;SDS011;26216;53.724;9.898;2022-11-15T13:21:02;7.18;;;5.97;;
40515;SDS011;26216;53.724;9.898;2022-11-15T13:23:52;7.82;;;5.82;;
40515;SDS011;26216;53.724;9.898;2022-11-15T13:26:21;8.82;;;6.18;;
40515;SDS011;26216;53.724;9.898;2022-11-15T13:28:48;6.78;;;5.43;;
40515;SDS011;26216;53.724;9.898;2022-11-15T13:31:24;6.90;;;5.20;;
40515;SDS011;26216;53.724;9.898;2022-11-15T13:33:59;6.18;;;4.70;;
40515;SDS011;26216;53.724;9.898;2022-11-15T13:36:28;7.05;;;5.22;;
40515;SDS011;26216;53.724;9.898;2022-11-15T13:39:00;5.97;;;5.03;;
40515;SDS011;26216;53.724;9.898;2022-11-15T13:41:30;7.10;;;5.07;;
40515;SDS011;26216;53.724;9.898;2022-11-15T13:44:00;6.45;;;5.38;;
40515;SDS011;26216;53.724;9.898;2022-11-15T13:46:29;6.93;;;5.43;;
40515;SDS011;26216;53.724;9.898;2022-11-15T13:48:59;6.95;;;5.88;;
40515;SDS011;26216;53.724;9.898;2022-11-15T13:51:44;7.38;;;5.90;;
40515;SDS011;26216;53.724;9.898;2022-11-15T13:56:40;6.97;;;5.18;;
40515;SDS011;26216;53.724;9.898;2022-11-15T13:59:33;5.78;;;4.68;;
40515;SDS011;26216;53.724;9.898;2022-11-15T14:02:12;6.20;;;5.32;;
40515;SDS011;26216;53.724;9.898;2022-11-15T14:05:15;7.47;;;6.00;;
40515;SDS011;26216;53.724;9.898;2022-11-15T14:07:56;7.53;;;6.22;;
40515;SDS011;26216;53.724;9.898;2022-11-15T14:10:29;6.68;;;5.15;;
40515;SDS011;26216;53.724;9.898;2022-11-15T14:12:57;9.60;;;6.80;;
40515;SDS011;26216;53.724;9.898;2022-11-15T14:15:25;7.22;;;6.07;;
40515;SDS011;26216;53.724;9.898;2022-11-15T14:17:59;7.72;;;6.20;;
40515;SDS011;26216;53.724;9.898;2022-11-15T14:20:33;6.85;;;5.32;;
40515;SDS011;26216;53.724;9.898;2022-11-15T14:23:05;8.02;;;5.90;;
40515;SDS011;26216;53.724;9.898;2022-11-15T14:25:55;5.85;;;4.80;;
40515;SDS011;26216;53.724;9.898;2022-11-15T14:30:53;6.18;;;5.15;;
40515;SDS011;26216;53.724;9.898;2022-11-15T14:33:23;9.32;;;5.65;;
40515;SDS011;26216;53.724;9.898;2022-11-15T14:35:55;7.45;;;4.97;;
40515;SDS011;26216;53.724;9.898;2022-11-15T14:38:23;7.95;;;5.82;;
40515;SDS011;26216;53.724;9.898;2022-11-15T14:40:50;6.35;;;5.43;;
40515;SDS011;26216;53.724;9.898;2022-11-15T14:43:16;7.43;;;6.03;;
40515;SDS011;26216;53.724;9.898;2022-11-15T14:45:43;10.55;;;5.78;;
40515;SDS011;26216;53.724;9.898;2022-11-15T14:48:09;6.72;;;5.20;;
40515;SDS011;26216;53.724;9.898;2022-11-15T14:50:35;6.45;;;4.97;;
40515;SDS011;26216;53.724;9.898;2022-11-15T14:53:02;7.13;;;4.90;;
40515;SDS011;26216;53.724;9.898;2022-11-15T14:55:30;7.07;;;4.82;;
40515;SDS011;26216;53.724;9.898;2022-11-15T14:58:03;7.28;;;5.55;;
40515;SDS011;26216;53.724;9.898;2022-11-15T15:00:32;8.27;;;6.00;;
40515;SDS011;26216;53.724;9.898;2022-11-15T15:02:58;8.68;;;6.13;;
40515;SDS011;26216;53.724;9.898;2022-11-15T15:05:35;6.90;;;5.50;;
40515;SDS011;26216;53.724;9.898;2022-11-15T15:08:02;8.73;;;5.80;;
40515;SDS011;26216;53.724;9.898;2022-11-15T15:10:40;8.50;;;6.70;;
40515;SDS011;26216;53.724;9.898;2022-11-15T15:13:14;8.77;;;6.28;;
40515;SDS011;26216;53.724;9.898;2022-11-15T15:15:49;6.90;;;5.82;;
40515;SDS011;26216;53.724;9.898;2022-11-15T15:18:16;7.63;;;5.75;;
40515;SDS011;26216;53.724;9.898;2022-11-15T15:20:44;6.28;;;5.20;;
40515;SDS011;26216;53.724;9.898;2022-11-15T15:23:17;6.07;;;5.07;;
40515;SDS011;26216;53.724;9.898;2022-11-15T15:25:44;6.90;;;5.22;;
40515;SDS011;26216;53.724;9.898;2022-11-15T15:28:13;6.32;;;5.25;;
40515;SDS011;26216;53.724;9.898;2022-11-15T15:30:39;6.82;;;5.05;;
40515;SDS011;26216;53.724;9.898;2022-11-15T15:33:05;7.03;;;5.28;;
40515;SDS011;26216;53.724;9.898;2022-11-15T15:35:32;7.32;;;5.38;;
40515;SDS011;26216;53.724;9.898;2022-11-15T15:38:00;6.75;;;4.80;;
40515;SDS011;26216;53.724;9.898;2022-11-15T15:40:27;6.10;;;5.10;;
40515;SDS011;26216;53.724;9.898;2022-11-15T15:42:55;6.07;;;4.80;;
40515;SDS011;26216;53.724;9.898;2022-11-15T15:45:21;5.57;;;4.40;;
40515;SDS011;26216;53.724;9.898;2022-11-15T15:47:47;7.35;;;5.45;;
40515;SDS011;26216;53.724;9.898;2022-11-15T15:50:22;6.40;;;5.00;;
40515;SDS011;26216;53.724;9.898;2022-11-15T15:52:49;5.93;;;4.95;;
40515;SDS011;26216;53.724;9.898;2022-11-15T15:55:16;5.72;;;4.80;;
40515;SDS011;26216;53.724;9.898;2022-11-15T15:57:42;6.43;;;5.25;;
40515;SDS011;26216;53.724;9.898;2022-11-15T16:00:08;6.45;;;4.80;;
40515;SDS011;26216;53.724;9.898;2022-11-15T16:02:35;6.18;;;4.47;;
40515;SDS011;26216;53.724;9.898;2022-11-15T16:05:01;6.32;;;5.07;;
40515;SDS011;26216;53.724;9.898;2022-11-15T16:07:27;5.97;;;4.78;;
40515;SDS011;26216;53.724;9.898;2022-11-15T16:09:54;8.10;;;5.60;;
40515;SDS011;26216;53.724;9.898;2022-11-15T16:12:30;7.75;;;6.03;;
40515;SDS011;26216;53.724;9.898;2022-11-15T16:15:00;8.38;;;6.50;;
40515;SDS011;26216;53.724;9.898;2022-11-15T16:17:32;11.77;;;7.80;;
40515;SDS011;26216;53.724;9.898;2022-11-15T16:19:59;10.00;;;7.63;;
40515;SDS011;26216;53.724;9.898;2022-11-15T16:22:28;10.02;;;7.57;;
40515;SDS011;26216;53.724;9.898;2022-11-15T16:24:54;9.55;;;7.15;;
40515;SDS011;26216;53.724;9.898;2022-11-15T16:27:21;7.95;;;6.78;;
40515;SDS011;26216;53.724;9.898;2022-11-15T16:29:48;8.55;;;7.28;;
40515;SDS011;26216;53.724;9.898;2022-11-15T16:32:15;9.38;;;7.22;;
40515;SDS011;26216;53.724;9.898;2022-11-15T16:34:41;10.20;;;7.45;;
40515;SDS011;26216;53.724;9.898;2022-11-15T16:37:22;7.90;;;6.60;;
40515;SDS011;26216;53.724;9.898;2022-11-15T16:42:15;7.28;;;5.57;;
40515;SDS011;26216;53.724;9.898;2022-11-15T16:44:41;8.02;;;5.57;;
40515;SDS011;26216;53.724;9.898;2022-11-15T16:47:19;7.47;;;5.78;;
40515;SDS011;26216;53.724;9.898;2022-11-15T16:49:47;7.88;;;6.32;;
40515;SDS011;26216;53.724;9.898;2022-11-15T16:52:13;7.45;;;6.20;;
40515;SDS011;26216;53.724;9.898;2022-11-15T16:54:40;7.03;;;5.70;;
40515;SDS011;26216;53.724;9.898;2022-11-15T16:57:07;8.57;;;6.55;;